sensor_id;sensor_type;location;lat;lon;timestamp;pressure;altitude;pressure_sealevel;temperature;humidity
16580;BME280;8402;51.466;6.806;2023-02-01T00:00:22;101718.41;;;6.37;100.00
16580;BME280;8402;51.466;6.806;2023-02-01T00:02:52;101724.63;;;6.37;100.00
16580;BME280;8402;51.466;6.806;2023-02-01T00:05:22;101715.16;;;6.34;100.00
16580;BME280;8402;51.466;6.806;2023-02-01T00:07:52;101712.44;;;6.34;100.00
16580;BME280;8402;51.466;6.806;2023-02-01T00:10:25;101713.03;;;6.37;100.00
16580;BME280;8402;51.466;6.806;2023-02-01T00:12:54;101712.50;;;6.40;100.00
16580;BME280;8402;51.466;6.806;2023-02-01T00:15:24;101713.28;;;6.40;100.00
16580;BME280;8402;51.466;6.806;2023-02-01T00:17:54;101720.03;;;6.43;100.00
16580;BME280;8402;51.466;6.806;2023-02-01T00:20:24;101716.84;;;6.46;100.00
16580;BME280;8402;51.466;6.806;2023-02-01T00:22:54;101721.69;;;6.49;100.00
16580;BME280;8402;51.466;6.806;2023-02-01T00:25:26;101723.31;;;6.50;100.00
16580;BME280;8402;51.466;6.806;2023-02-01T00:27:56;101712.78;;;6.48;100.00
16580;BME280;8402;51.466;6.806;2023-02-01T00:30:27;101713.59;;;6.49;100.00
16580;BME280;8402;51.466;6.806;2023-02-01T00:32:57;101702.81;;;6.44;100.00
16580;BME280;8402;51.466;6.806;2023-02-01T00:35:27;101697.69;;;6.47;100.00
16580;BME280;8402;51.466;6.806;2023-02-01T00:37:56;101695.00;;;6.47;100.00
16580;BME280;8402;51.466;6.806;2023-02-01T00:40:29;101686.09;;;6.47;100.00
16580;BME280;8402;51.466;6.806;2023-02-01T00:42:59;101669.13;;;6.46;100.00
16580;BME280;8402;51.466;6.806;2023-02-01T00:45:29;101666.41;;;6.46;100.00
16580;BME280;8402;51.466;6.806;2023-02-01T00:47:59;101666.69;;;6.45;100.00
16580;BME280;8402;51.466;6.806;2023-02-01T00:50:29;101671.81;;;6.46;100.00
16580;BME280;8402;51.466;6.806;2023-02-01T00:52:58;101669.66;;;6.48;100.00
16580;BME280;8402;51.466;6.806;2023-02-01T00:55:31;101659.44;;;6.50;100.00
16580;BME280;8402;51.466;6.806;2023-02-01T00:58:01;101678.03;;;6.52;100.00
16580;BME280;8402;51.466;6.806;2023-02-01T01:00:32;101683.97;;;6.54;100.00
16580;BME280;8402;51.466;6.806;2023-02-01T01:03:02;101685.59;;;6.55;100.00
16580;BME280;8402;51.466;6.806;2023-02-01T01:05:44;101686.66;;;6.54;100.00
16580;BME280;8402;51.466;6.806;2023-02-01T01:08:15;101684.75;;;6.49;100.00
16580;BME280;8402;51.466;6.806;2023-02-01T01:10:47;101688.81;;;6.52;100.00
16580;BME280;8402;51.466;6.806;2023-02-01T01:13:17;101692.06;;;6.54;100.00
16580;BME280;8402;51.466;6.806;2023-02-01T01:15:47;101693.16;;;6.53;100.00
16580;BME280;8402;51.466;6.806;2023-02-01T01:18:17;101698.00;;;6.56;100.00
16580;BME280;8402;51.466;6.806;2023-02-01T01:20:47;101692.06;;;6.54;100.00
16580;BME280;8402;51.466;6.806;2023-02-01T01:23:17;101688.28;;;6.55;100.00
16580;BME280;8402;51.466;6.806;2023-02-01T01:25:50;101678.03;;;6.57;100.00
16580;BME280;8402;51.466;6.806;2023-02-01T01:28:20;101679.69;;;6.58;100.00
16580;BME280;8402;51.466;6.806;2023-02-01T01:30:50;101674.84;;;6.60;100.00
16580;BME280;8402;51.466;6.806;2023-02-01T01:33:20;101682.94;;;6.65;100.00
16580;BME280;8402;51.466;6.806;2023-02-01T01:35:49;101678.38;;;6.66;100.00
16580;BME280;8402;51.466;6.806;2023-02-01T01:38:19;101691.03;;;6.65;100.00
16580;BME280;8402;51.466;6.806;2023-02-01T01:40:51;101685.66;;;6.65;100.00
16580;BME280;8402;51.466;6.806;2023-02-01T01:43:21;101676.47;;;6.66;100.00
16580;BME280;8402;51.466;6.806;2023-02-01T01:45:51;101678.59;;;6.64;100.00
16580;BME280;8402;51.466;6.806;2023-02-01T01:48:26;101667.28;;;6.62;100.00
16580;BME280;8402;51.466;6.806;2023-02-01T01:50:58;101667.28;;;6.62;100.00
16580;BME280;8402;51.466;6.806;2023-02-01T01:53:34;101659.19;;;6.62;100.00
16580;BME280;8402;51.466;6.806;2023-02-01T01:56:10;101659.72;;;6.59;100.00
16580;BME280;8402;51.466;6.806;2023-02-01T01:58:40;101662.44;;;6.59;100.00
16580;BME280;8402;51.466;6.806;2023-02-01T02:01:10;101661.88;;;6.57;100.00
16580;BME280;8402;51.466;6.806;2023-02-01T02:03:42;101662.44;;;6.59;100.00
16580;BME280;8402;51.466;6.806;2023-02-01T02:06:19;101657.03;;;6.59;100.00
16580;BME280;8402;51.466;6.806;2023-02-01T02:08:51;101664.03;;;6.60;100.00
16580;BME280;8402;51.466;6.806;2023-02-01T02:11:24;101652.97;;;6.56;100.00
16580;BME280;8402;51.466;6.806;2023-02-01T02:13:55;101646.75;;;6.56;100.00
16580;BME280;8402;51.466;6.806;2023-02-01T02:19:48;101645.63;;;6.42;100.00
16580;BME280;8402;51.466;6.806;2023-02-01T02:22:40;101656.41;;;6.42;100.00
16580;BME280;8402;51.466;6.806;2023-02-01T02:28:30;101651.53;;;6.33;100.00
16580;BME280;8402;51.466;6.806;2023-02-01T02:31:24;101655.03;;;6.34;100.00
16580;BME280;8402;51.466;6.806;2023-02-01T02:34:11;101654.22;;;6.33;100.00
16580;BME280;8402;51.466;6.806;2023-02-01T02:36:54;101646.69;;;6.35;100.00
16580;BME280;8402;51.466;6.806;2023-02-01T02:39:34;101633.78;;;6.38;100.00
16580;BME280;8402;51.466;6.806;2023-02-01T02:42:10;101633.78;;;6.38;100.00
16580;BME280;8402;51.466;6.806;2023-02-01T02:44:57;101637.25;;;6.33;100.00
16580;BME280;8402;51.466;6.806;2023-02-01T02:47:44;101631.31;;;6.31;100.00
16580;BME280;8402;51.466;6.806;2023-02-01T02:50:25;101635.88;;;6.25;100.00
16580;BME280;8402;51.466;6.806;2023-02-01T02:53:13;101635.59;;;6.22;100.00
16580;BME280;8402;51.466;6.806;2023-02-01T02:55:56;101635.03;;;6.20;100.00
16580;BME280;8402;51.466;6.806;2023-02-01T02:58:39;101643.34;;;6.13;100.00
16580;BME280;8402;51.466;6.806;2023-02-01T03:01:22;101643.34;;;6.13;100.00
16580;BME280;8402;51.466;6.806;2023-02-01T03:04:04;101631.22;;;6.11;100.00
16580;BME280;8402;51.466;6.806;2023-02-01T03:06:39;101635.25;;;6.08;100.00
16580;BME280;8402;51.466;6.806;2023-02-01T03:09:14;101635.75;;;6.05;100.00
16580;BME280;8402;51.466;6.806;2023-02-01T03:11:49;101629.88;;;6.08;100.00
16580;BME280;8402;51.466;6.806;2023-02-01T03:14:34;101616.94;;;6.10;100.00
16580;BME280;8402;51.466;6.806;2023-02-01T03:17:10;101616.13;;;6.10;100.00
16580;BME280;8402;51.466;6.806;2023-02-01T03:19:44;101610.75;;;6.10;100.00
16580;BME280;8402;51.466;6.806;2023-02-01T03:22:21;101602.13;;;6.07;100.00
16580;BME280;8402;51.466;6.806;2023-02-01T03:24:54;101606.13;;;6.05;100.00
16580;BME280;8402;51.466;6.806;2023-02-01T03:27:27;101598.03;;;6.05;100.00
16580;BME280;8402;51.466;6.806;2023-02-01T03:30:04;101594.81;;;6.03;100.00
16580;BME280;8402;51.466;6.806;2023-02-01T03:32:37;101599.91;;;5.99;100.00
16580;BME280;8402;51.466;6.806;2023-02-01T03:35:26;101603.97;;;6.02;100.00
16580;BME280;8402;51.466;6.806;2023-02-01T03:38:05;101591.59;;;6.01;100.00
16580;BME280;8402;51.466;6.806;2023-02-01T03:40:39;101588.88;;;6.01;100.00
16580;BME280;8402;51.466;6.806;2023-02-01T03:43:14;101587.28;;;6.05;100.00
16580;BME280;8402;51.466;6.806;2023-02-01T03:45:51;101587.31;;;6.10;100.00
16580;BME280;8402;51.466;6.806;2023-02-01T03:48:23;101583.00;;;6.14;100.00
16580;BME280;8402;51.466;6.806;2023-02-01T03:50:56;101572.78;;;6.16;100.00
16580;BME280;8402;51.466;6.806;2023-02-01T03:53:30;101565.78;;;6.15;100.00
16580;BME280;8402;51.466;6.806;2023-02-01T03:56:01;101555.53;;;6.17;100.00
16580;BME280;8402;51.466;6.806;2023-02-01T03:58:31;101563.31;;;6.14;100.00
16580;BME280;8402;51.466;6.806;2023-02-01T04:01:02;101560.38;;;6.15;100.00
16580;BME280;8402;51.466;6.806;2023-02-01T04:03:31;101566.84;;;6.19;100.00
16580;BME280;8402;51.466;6.806;2023-02-01T04:06:01;101559.31;;;6.21;100.00
16580;BME280;8402;51.466;6.806;2023-02-01T04:08:34;101572.25;;;6.19;100.00
16580;BME280;8402;51.466;6.806;2023-02-01T04:11:03;101565.78;;;6.20;100.00
16580;BME280;8402;51.466;6.806;2023-02-01T04:13:33;101552.31;;;6.20;100.00
16580;BME280;8402;51.466;6.806;2023-02-01T04:16:04;101557.69;;;6.20;100.00
16580;BME280;8402;51.466;6.806;2023-02-01T04:18:34;101563.31;;;6.14;100.00
16580;BME280;8402;51.466;6.806;2023-02-01T04:21:04;101564.44;;;6.18;100.00
16580;BME280;8402;51.466;6.806;2023-02-01T04:23:37;101570.63;;;6.18;100.00
16580;BME280;8402;51.466;6.806;2023-02-01T04:26:06;101579.25;;;6.20;100.00
16580;BME280;8402;51.466;6.806;2023-02-01T04:28:36;101589.22;;;6.20;100.00
16580;BME280;8402;51.466;6.806;2023-02-01T04:31:06;101580.06;;;6.21;100.00
16580;BME280;8402;51.466;6.806;2023-02-01T04:33:36;101576.31;;;6.22;100.00
16580;BME280;8402;51.466;6.806;2023-02-01T04:36:06;101581.16;;;6.25;100.00
16580;BME280;8402;51.466;6.806;2023-02-01T04:38:39;101585.97;;;6.18;100.00
16580;BME280;8402;51.466;6.806;2023-02-01T04:41:09;101579.25;;;6.20;100.00
16580;BME280;8402;51.466;6.806;2023-02-01T04:43:39;101577.34;;;6.21;100.00
16580;BME280;8402;51.466;6.806;2023-02-01T04:46:09;101579.25;;;6.20;100.00
16580;BME280;8402;51.466;6.806;2023-02-01T04:48:39;101584.13;;;6.23;100.00
16580;BME280;8402;51.466;6.806;2023-02-01T04:51:09;101584.63;;;6.20;100.00
16580;BME280;8402;51.466;6.806;2023-02-01T04:53:42;101583.31;;;6.23;100.00
16580;BME280;8402;51.466;6.806;2023-02-01T04:56:11;101584.13;;;6.23;100.00
16580;BME280;8402;51.466;6.806;2023-02-01T04:58:41;101578.72;;;6.28;100.00
16580;BME280;8402;51.466;6.806;2023-02-01T05:01:11;101583.06;;;6.29;100.00
16580;BME280;8402;51.466;6.806;2023-02-01T05:03:41;101579.31;;;6.30;100.00
16580;BME280;8402;51.466;6.806;2023-02-01T05:06:11;101581.41;;;6.18;100.00
16580;BME280;8402;51.466;6.806;2023-02-01T05:08:43;101578.19;;;6.26;100.00
16580;BME280;8402;51.466;6.806;2023-02-01T05:11:13;101578.19;;;6.26;100.00
16580;BME280;8402;51.466;6.806;2023-02-01T05:13:55;101576.56;;;6.25;100.00
16580;BME280;8402;51.466;6.806;2023-02-01T05:16:27;101584.06;;;6.13;100.00
16580;BME280;8402;51.466;6.806;2023-02-01T05:18:57;101581.94;;;6.15;100.00
16580;BME280;8402;51.466;6.806;2023-02-01T05:21:27;101586.22;;;6.11;100.00
16580;BME280;8402;51.466;6.806;2023-02-01T05:24:00;101579.22;;;6.10;100.00
16580;BME280;8402;51.466;6.806;2023-02-01T05:26:40;101577.59;;;6.09;100.00
16580;BME280;8402;51.466;6.806;2023-02-01T05:29:11;101579.22;;;6.10;100.00
16580;BME280;8402;51.466;6.806;2023-02-01T05:31:41;101581.94;;;6.15;100.00
16580;BME280;8402;51.466;6.806;2023-02-01T05:34:11;101573.59;;;6.17;100.00
16580;BME280;8402;51.466;6.806;2023-02-01T05:36:41;101576.81;;;6.19;100.00
16580;BME280;8402;51.466;6.806;2023-02-01T05:39:13;101576.00;;;6.18;100.00
16580;BME280;8402;51.466;6.806;2023-02-01T05:41:43;101578.16;;;6.16;100.00
16580;BME280;8402;51.466;6.806;2023-02-01T05:44:13;101577.59;;;6.14;100.00
16580;BME280;8402;51.466;6.806;2023-02-01T05:46:43;101580.84;;;6.11;100.00
16580;BME280;8402;51.466;6.806;2023-02-01T05:49:15;101573.25;;;6.03;100.00
16580;BME280;8402;51.466;6.806;2023-02-01T05:51:45;101559.78;;;6.03;100.00
16580;BME280;8402;51.466;6.806;2023-02-01T05:54:17;101566.75;;;5.99;100.00
16580;BME280;8402;51.466;6.806;2023-02-01T05:56:47;101564.06;;;5.99;100.00
16580;BME280;8402;51.466;6.806;2023-02-01T05:59:17;101565.16;;;5.98;100.00
16580;BME280;8402;51.466;6.806;2023-02-01T06:01:47;101560.88;;;6.02;100.00
16580;BME280;8402;51.466;6.806;2023-02-01T06:04:17;101558.72;;;6.04;100.00
16580;BME280;8402;51.466;6.806;2023-02-01T06:06:46;101557.66;;;6.10;100.00
16580;BME280;8402;51.466;6.806;2023-02-01T06:09:20;101568.72;;;6.14;100.00
16580;BME280;8402;51.466;6.806;2023-02-01T06:11:49;101566.81;;;6.14;100.00
16580;BME280;8402;51.466;6.806;2023-02-01T06:14:19;101574.09;;;6.14;100.00
16580;BME280;8402;51.466;6.806;2023-02-01T06:16:51;101575.97;;;6.13;100.00
16580;BME280;8402;51.466;6.806;2023-02-01T06:19:21;101584.06;;;6.13;100.00
16580;BME280;8402;51.466;6.806;2023-02-01T06:21:51;101588.38;;;6.09;100.00
16580;BME280;8402;51.466;6.806;2023-02-01T06:24:23;101589.47;;;6.13;100.00
16580;BME280;8402;51.466;6.806;2023-02-01T06:26:53;101587.34;;;6.15;100.00
16580;BME280;8402;51.466;6.806;2023-02-01T06:29:23;101581.94;;;6.15;100.00
16580;BME280;8402;51.466;6.806;2023-02-01T06:31:53;101587.34;;;6.15;100.00
16580;BME280;8402;51.466;6.806;2023-02-01T06:34:23;101578.44;;;6.20;100.00
16580;BME280;8402;51.466;6.806;2023-02-01T06:36:53;101597.03;;;6.21;100.00
16580;BME280;8402;51.466;6.806;2023-02-01T06:39:25;101590.59;;;6.27;100.00
16580;BME280;8402;51.466;6.806;2023-02-01T06:41:56;101583.88;;;6.30;100.00
16580;BME280;8402;51.466;6.806;2023-02-01T06:44:25;101592.22;;;6.33;100.00
16580;BME280;8402;51.466;6.806;2023-02-01T06:46:55;101588.47;;;6.34;100.00
16580;BME280;8402;51.466;6.806;2023-02-01T06:49:26;101589.53;;;6.33;100.00
16580;BME280;8402;51.466;6.806;2023-02-01T06:51:55;101584.16;;;6.39;100.00
16580;BME280;8402;51.466;6.806;2023-02-01T06:54:29;101587.38;;;6.30;100.00
16580;BME280;8402;51.466;6.806;2023-02-01T06:57:00;101588.22;;;6.36;100.00
16580;BME280;8402;51.466;6.806;2023-02-01T06:59:30;101591.16;;;6.34;100.00
16580;BME280;8402;51.466;6.806;2023-02-01T07:02:00;101590.34;;;6.34;100.00
16580;BME280;8402;51.466;6.806;2023-02-01T07:04:30;101580.94;;;6.37;100.00
16580;BME280;8402;51.466;6.806;2023-02-01T07:07:00;101590.09;;;6.30;100.00
16580;BME280;8402;51.466;6.806;2023-02-01T07:09:33;101597.34;;;6.35;100.00
16580;BME280;8402;51.466;6.806;2023-02-01T07:12:03;101593.06;;;6.39;100.00
16580;BME280;8402;51.466;6.806;2023-02-01T07:14:33;101600.38;;;6.44;100.00
16580;BME280;8402;51.466;6.806;2023-02-01T07:17:03;101608.44;;;6.49;100.00
16580;BME280;8402;51.466;6.806;2023-02-01T07:19:33;101602.53;;;6.47;100.00
16580;BME280;8402;51.466;6.806;2023-02-01T07:22:02;101604.41;;;6.46;100.00
16580;BME280;8402;51.466;6.806;2023-02-01T07:24:36;101600.38;;;6.44;100.00
16580;BME280;8402;51.466;6.806;2023-02-01T07:27:06;101609.03;;;6.51;100.00
16580;BME280;8402;51.466;6.806;2023-02-01T07:29:35;101604.16;;;6.53;100.00
16580;BME280;8402;51.466;6.806;2023-02-01T07:32:05;101611.16;;;6.49;100.00
16580;BME280;8402;51.466;6.806;2023-02-01T07:34:35;101611.19;;;6.54;100.00
16580;BME280;8402;51.466;6.806;2023-02-01T07:37:05;101605.78;;;6.54;100.00
16580;BME280;8402;51.466;6.806;2023-02-01T07:39:37;101606.31;;;6.51;100.00
16580;BME280;8402;51.466;6.806;2023-02-01T07:42:07;101608.19;;;6.45;100.00
16580;BME280;8402;51.466;6.806;2023-02-01T07:44:37;101606.31;;;6.51;100.00
16580;BME280;8402;51.466;6.806;2023-02-01T07:47:07;101604.97;;;6.53;100.00
16580;BME280;8402;51.466;6.806;2023-02-01T07:49:37;101608.50;;;6.59;100.00
16580;BME280;8402;51.466;6.806;2023-02-01T07:52:07;101614.41;;;6.56;100.00
16580;BME280;8402;51.466;6.806;2023-02-01T07:54:40;101622.25;;;6.57;100.00
16580;BME280;8402;51.466;6.806;2023-02-01T07:57:10;101612.28;;;6.58;100.00
16580;BME280;8402;51.466;6.806;2023-02-01T07:59:40;101624.41;;;6.60;100.00
16580;BME280;8402;51.466;6.806;2023-02-01T08:02:33;101622.50;;;6.56;100.00
16580;BME280;8402;51.466;6.806;2023-02-01T08:05:01;101611.72;;;6.61;100.00
16580;BME280;8402;51.466;6.806;2023-02-01T08:07:31;101628.47;;;6.58;100.00
16580;BME280;8402;51.466;6.806;2023-02-01T08:10:05;101630.59;;;6.56;100.00
16580;BME280;8402;51.466;6.806;2023-02-01T08:12:37;101626.81;;;6.57;100.00
16580;BME280;8402;51.466;6.806;2023-02-01T08:15:08;101619.28;;;6.59;100.00
16580;BME280;8402;51.466;6.806;2023-02-01T08:17:38;101618.47;;;6.58;100.00
16580;BME280;8402;51.466;6.806;2023-02-01T08:20:09;101620.91;;;6.60;100.00
16580;BME280;8402;51.466;6.806;2023-02-01T08:22:40;101621.47;;;6.67;100.00
16580;BME280;8402;51.466;6.806;2023-02-01T08:25:13;101636.00;;;6.61;100.00
16580;BME280;8402;51.466;6.806;2023-02-01T08:27:43;101624.16;;;6.67;100.00
16580;BME280;8402;51.466;6.806;2023-02-01T08:30:13;101635.47;;;6.64;100.00
16580;BME280;8402;51.466;6.806;2023-02-01T08:32:43;101637.91;;;6.66;100.00
16580;BME280;8402;51.466;6.806;2023-02-01T08:35:13;101640.03;;;6.63;100.00
16580;BME280;8402;51.466;6.806;2023-02-01T08:37:43;101643.03;;;6.67;100.00
16580;BME280;8402;51.466;6.806;2023-02-01T08:40:16;101647.34;;;6.68;100.00
16580;BME280;8402;51.466;6.806;2023-02-01T08:42:49;101642.75;;;6.63;100.00
16580;BME280;8402;51.466;6.806;2023-02-01T08:45:24;101644.66;;;6.68;100.00
16580;BME280;8402;51.466;6.806;2023-02-01T08:47:58;101647.88;;;6.70;100.00
16580;BME280;8402;51.466;6.806;2023-02-01T08:50:27;101650.59;;;6.75;100.00
16580;BME280;8402;51.466;6.806;2023-02-01T08:52:57;101658.97;;;6.74;100.00
16580;BME280;8402;51.466;6.806;2023-02-01T08:55:30;101663.56;;;6.73;100.00
16580;BME280;8402;51.466;6.806;2023-02-01T08:58:00;101661.69;;;6.79;100.00
16580;BME280;8402;51.466;6.806;2023-02-01T09:00:29;101659.22;;;6.67;100.00
16580;BME280;8402;51.466;6.806;2023-02-01T09:02:59;101658.44;;;6.77;100.00
16580;BME280;8402;51.466;6.806;2023-02-01T09:05:29;101645.50;;;6.79;100.00
16580;BME280;8402;51.466;6.806;2023-02-01T09:08:14;101652.22;;;6.76;100.00
16580;BME280;8402;51.466;6.806;2023-02-01T09:10:48;101646.56;;;6.83;100.00
16580;BME280;8402;51.466;6.806;2023-02-01T09:13:18;101634.16;;;6.82;100.00
16580;BME280;8402;51.466;6.806;2023-02-01T09:15:50;101634.19;;;6.87;100.00
16580;BME280;8402;51.466;6.806;2023-02-01T09:18:20;101618.78;;;6.93;100.00
16580;BME280;8402;51.466;6.806;2023-02-01T09:20:50;101619.34;;;6.89;100.00
16580;BME280;8402;51.466;6.806;2023-02-01T09:23:20;101631.75;;;6.90;100.00
16580;BME280;8402;51.466;6.806;2023-02-01T09:25:52;101631.22;;;6.94;100.00
16580;BME280;8402;51.466;6.806;2023-02-01T09:28:22;101627.97;;;6.92;100.00
16580;BME280;8402;51.466;6.806;2023-02-01T09:30:55;101630.69;;;6.97;100.00
16580;BME280;8402;51.466;6.806;2023-02-01T09:33:26;101618.53;;;6.99;100.00
16580;BME280;8402;51.466;6.806;2023-02-01T09:35:56;101613.94;;;7.00;100.00
16580;BME280;8402;51.466;6.806;2023-02-01T09:38:26;101611.81;;;7.02;100.00
16580;BME280;8402;51.466;6.806;2023-02-01T09:41:01;101619.34;;;7.05;100.00
16580;BME280;8402;51.466;6.806;2023-02-01T09:43:37;101622.88;;;7.05;100.00
16580;BME280;8402;51.466;6.806;2023-02-01T09:46:20;101623.16;;;7.09;100.00
16580;BME280;8402;51.466;6.806;2023-02-01T09:48:54;101618.81;;;7.13;100.00
16580;BME280;8402;51.466;6.806;2023-02-01T09:51:27;101627.47;;;7.15;100.00
16580;BME280;8402;51.466;6.806;2023-02-01T09:54:02;101629.63;;;7.23;100.00
16580;BME280;8402;51.466;6.806;2023-02-01T09:56:40;101620.97;;;7.11;100.00
16580;BME280;8402;51.466;6.806;2023-02-01T09:59:22;101619.38;;;7.15;100.00
16580;BME280;8402;51.466;6.806;2023-02-01T10:01:53;101613.97;;;7.25;100.00
16580;BME280;8402;51.466;6.806;2023-02-01T10:04:23;101618.56;;;7.25;100.00
16580;BME280;8402;51.466;6.806;2023-02-01T10:07:10;101608.59;;;7.30;100.00
16580;BME280;8402;51.466;6.806;2023-02-01T10:09:52;101625.03;;;7.39;100.00
16580;BME280;8402;51.466;6.806;2023-02-01T10:15:32;101608.56;;;7.51;100.00
16580;BME280;8402;51.466;6.806;2023-02-01T10:18:19;101608.56;;;7.51;100.00
16580;BME280;8402;51.466;6.806;2023-02-01T10:20:57;101604.22;;;7.50;100.00
16580;BME280;8402;51.466;6.806;2023-02-01T10:26:37;101607.47;;;7.57;100.00
16580;BME280;8402;51.466;6.806;2023-02-01T10:29:18;101608.56;;;7.51;100.00
16580;BME280;8402;51.466;6.806;2023-02-01T10:31:48;101607.47;;;7.57;100.00
16580;BME280;8402;51.466;6.806;2023-02-01T10:34:21;101615.84;;;7.55;100.00
16580;BME280;8402;51.466;6.806;2023-02-01T10:36:55;101618.00;;;7.53;100.00
16580;BME280;8402;51.466;6.806;2023-02-01T10:39:27;101613.41;;;7.54;100.00
16580;BME280;8402;51.466;6.806;2023-02-01T10:41:56;101613.41;;;7.59;100.00
16580;BME280;8402;51.466;6.806;2023-02-01T10:44:30;101607.47;;;7.67;100.00
16580;BME280;8402;51.466;6.806;2023-02-01T10:47:01;101613.91;;;7.71;100.00
16580;BME280;8402;51.466;6.806;2023-02-01T10:49:38;101610.69;;;7.74;100.00
16580;BME280;8402;51.466;6.806;2023-02-01T10:52:13;101600.41;;;7.76;100.00
16580;BME280;8402;51.466;6.806;2023-02-01T10:54:44;101608.50;;;7.81;100.00
16580;BME280;8402;51.466;6.806;2023-02-01T10:57:21;101607.69;;;7.81;100.00
16580;BME280;8402;51.466;6.806;2023-02-01T10:59:55;101608.50;;;7.81;100.00
16580;BME280;8402;51.466;6.806;2023-02-01T11:02:29;101590.94;;;7.84;100.00
16580;BME280;8402;51.466;6.806;2023-02-01T11:05:01;101595.53;;;7.88;100.00
16580;BME280;8402;51.466;6.806;2023-02-01T11:07:32;101597.66;;;7.91;100.00
16580;BME280;8402;51.466;6.806;2023-02-01T11:10:04;101598.75;;;7.95;100.00
16580;BME280;8402;51.466;6.806;2023-02-01T11:12:35;101599.78;;;7.99;100.00
16580;BME280;8402;51.466;6.806;2023-02-01T11:15:19;101581.16;;;7.93;100.00
16580;BME280;8402;51.466;6.806;2023-02-01T11:17:51;101596.56;;;7.97;100.00
16580;BME280;8402;51.466;6.806;2023-02-01T11:20:36;101592.78;;;7.98;99.73
16580;BME280;8402;51.466;6.806;2023-02-01T11:23:13;101574.38;;;8.06;100.00
16580;BME280;8402;51.466;6.806;2023-02-01T11:25:48;101569.25;;;8.04;99.17
16580;BME280;8402;51.466;6.806;2023-02-01T11:28:22;101560.56;;;8.12;98.87
16580;BME280;8402;51.466;6.806;2023-02-01T11:30:59;101553.03;;;8.04;98.86
16580;BME280;8402;51.466;6.806;2023-02-01T11:33:32;101543.00;;;8.15;98.93
16580;BME280;8402;51.466;6.806;2023-02-01T11:36:07;101532.69;;;8.22;98.96
16580;BME280;8402;51.466;6.806;2023-02-01T11:38:38;101537.00;;;8.23;98.99
16580;BME280;8402;51.466;6.806;2023-02-01T11:41:13;101541.31;;;8.24;99.49
16580;BME280;8402;51.466;6.806;2023-02-01T11:43:55;101530.28;;;8.15;99.46
16580;BME280;8402;51.466;6.806;2023-02-01T11:46:31;101541.91;;;8.11;99.59
16580;BME280;8402;51.466;6.806;2023-02-01T11:49:18;101548.44;;;8.05;99.83
16580;BME280;8402;51.466;6.806;2023-02-01T11:52:02;101545.75;;;7.99;100.00
16580;BME280;8402;51.466;6.806;2023-02-01T11:54:45;101537.63;;;8.05;100.00
16580;BME280;8402;51.466;6.806;2023-02-01T11:57:33;101530.03;;;8.07;100.00
16580;BME280;8402;51.466;6.806;2023-02-01T12:00:23;101533.88;;;8.00;100.00
16580;BME280;8402;51.466;6.806;2023-02-01T12:05:59;101521.41;;;7.99;100.00
16580;BME280;8402;51.466;6.806;2023-02-01T12:08:51;101526.28;;;8.03;100.00
16580;BME280;8402;51.466;6.806;2023-02-01T12:11:38;101521.16;;;8.01;100.00
16580;BME280;8402;51.466;6.806;2023-02-01T12:14:23;101512.19;;;8.06;100.00
16580;BME280;8402;51.466;6.806;2023-02-01T12:17:27;101516.50;;;8.07;100.00
16580;BME280;8402;51.466;6.806;2023-02-01T12:20:28;101507.88;;;8.05;100.00
16580;BME280;8402;51.466;6.806;2023-02-01T12:23:17;101508.72;;;8.00;100.00
16580;BME280;8402;51.466;6.806;2023-02-01T12:26:03;101510.06;;;8.03;100.00
16580;BME280;8402;51.466;6.806;2023-02-01T12:29:01;101508.41;;;8.07;99.99
16580;BME280;8402;51.466;6.806;2023-02-01T12:31:46;101496.78;;;8.06;100.00
16580;BME280;8402;51.466;6.806;2023-02-01T12:37:41;101490.59;;;8.06;98.26
16580;BME280;8402;51.466;6.806;2023-02-01T12:40:45;101496.78;;;8.06;97.98
16580;BME280;8402;51.466;6.806;2023-02-01T12:43:22;101485.16;;;8.11;98.39
16580;BME280;8402;51.466;6.806;2023-02-01T12:45:58;101487.28;;;8.14;98.64
16580;BME280;8402;51.466;6.806;2023-02-01T12:48:32;101489.97;;;8.19;97.91
16580;BME280;8402;51.466;6.806;2023-02-01T12:51:06;101481.34;;;8.17;97.48
16580;BME280;8402;51.466;6.806;2023-02-01T12:53:45;101492.16;;;8.12;97.75
16580;BME280;8402;51.466;6.806;2023-02-01T12:56:21;101490.53;;;8.16;98.18
16580;BME280;8402;51.466;6.806;2023-02-01T12:58:53;101480.78;;;8.20;98.01
16580;BME280;8402;51.466;6.806;2023-02-01T13:01:31;101488.34;;;8.18;97.79
16580;BME280;8402;51.466;6.806;2023-02-01T13:04:10;101484.56;;;8.19;98.40
16580;BME280;8402;51.466;6.806;2023-02-01T13:06:45;101488.44;;;8.08;99.35
16580;BME280;8402;51.466;6.806;2023-02-01T13:09:26;101491.16;;;8.03;99.14
16580;BME280;8402;51.466;6.806;2023-02-01T13:12:02;101484.06;;;8.12;99.47
16580;BME280;8402;51.466;6.806;2023-02-01T13:14:38;101478.66;;;8.12;99.64
16580;BME280;8402;51.466;6.806;2023-02-01T13:17:14;101485.13;;;8.16;99.39
16580;BME280;8402;51.466;6.806;2023-02-01T13:19:48;101485.13;;;8.16;99.17
16580;BME280;8402;51.466;6.806;2023-02-01T13:22:22;101482.66;;;8.24;99.10
16580;BME280;8402;51.466;6.806;2023-02-01T13:24:58;101478.84;;;8.25;98.60
16580;BME280;8402;51.466;6.806;2023-02-01T13:27:30;101482.38;;;8.21;98.77
16580;BME280;8402;51.466;6.806;2023-02-01T13:30:04;101475.84;;;8.27;98.60
16580;BME280;8402;51.466;6.806;2023-02-01T13:32:59;101475.38;;;8.20;98.79
16580;BME280;8402;51.466;6.806;2023-02-01T13:41:55;101473.72;;;8.24;98.05
16580;BME280;8402;51.466;6.806;2023-02-01T13:44:30;101481.25;;;8.27;98.76
16580;BME280;8402;51.466;6.806;2023-02-01T13:47:08;101479.66;;;8.26;98.50
16580;BME280;8402;51.466;6.806;2023-02-01T13:49:41;101484.25;;;8.25;98.50
16580;BME280;8402;51.466;6.806;2023-02-01T13:52:25;101470.50;;;8.22;97.71
16580;BME280;8402;51.466;6.806;2023-02-01T13:57:59;101479.66;;;8.26;98.48
16580;BME280;8402;51.466;6.806;2023-02-01T14:00:32;101475.31;;;8.30;98.04
16580;BME280;8402;51.466;6.806;2023-02-01T14:03:21;101480.72;;;8.30;98.16
16580;BME280;8402;51.466;6.806;2023-02-01T14:06:01;101475.28;;;8.35;97.97